Time;durP1;ratioP1;P1;durP2;ratioP2;P2;SDS_P1;SDS_P2;PMS_P1;PMS_P2;Temp;Humidity;BMP_temperature;BMP_pressure;BME280_temperature;BME280_humidity;BME280_pressure;Samples;Min_cycle;Max_cycle;Signal;HPM_P1;HPM_P2
2021/03/07 00:01:37;;;;;;;8.60;6.35;;;;;;;-1.29;64.82;97500.67;1819979;78;21162;-79
2021/03/07 00:04:04;;;;;;;8.00;5.35;;;;;;;-1.32;64.94;97502.09;1819646;78;21260;-79
2021/03/07 00:06:30;;;;;;;12.33;8.48;;;;;;;-1.37;65.34;97498.97;1819616;78;21364;-79
2021/03/07 00:08:55;;;;;;;8.35;6.72;;;;;;;-1.40;64.98;97501.68;1819838;78;21118;-79
2021/03/07 00:11:21;;;;;;;10.40;7.17;;;;;;;-1.40;65.10;97500.41;1819551;78;21381;-79
2021/03/07 00:13:48;;;;;;;7.40;6.10;;;;;;;-1.43;65.10;97499.75;1819674;78;21087;-79
2021/03/07 00:16:14;;;;;;;5.03;4.35;;;;;;;-1.42;65.18;97496.30;1819935;79;21380;-79
2021/03/07 00:18:40;;;;;;;11.60;7.35;;;;;;;-1.41;64.83;97495.39;1819689;78;21279;-79
2021/03/07 00:21:06;;;;;;;8.58;6.90;;;;;;;-1.37;65.06;97492.59;1820421;79;21157;-79
2021/03/07 00:23:32;;;;;;;10.25;7.28;;;;;;;-1.37;65.38;97496.87;1795525;79;21260;-79
2021/03/07 00:25:58;;;;;;;11.20;7.90;;;;;;;-1.39;65.25;97495.67;1825316;78;21442;-79
2021/03/07 00:28:24;;;;;;;9.38;7.67;;;;;;;-1.40;65.04;97496.58;1825358;78;21109;-79
2021/03/07 00:30:50;;;;;;;9.15;7.37;;;;;;;-1.37;65.19;97490.05;1825181;78;21137;-79
2021/03/07 00:33:16;;;;;;;7.28;6.53;;;;;;;-1.33;64.70;97494.06;1825090;78;21150;-79
2021/03/07 00:35:43;;;;;;;11.12;7.17;;;;;;;-1.35;64.89;97489.50;1796194;79;21129;-79
2021/03/07 00:38:09;;;;;;;9.45;7.00;;;;;;;-1.33;64.64;97478.77;1826019;78;21118;-79
2021/03/07 00:40:35;;;;;;;8.00;6.87;;;;;;;-1.32;64.76;97478.31;1825597;78;21098;-79
2021/03/07 00:43:01;;;;;;;8.18;6.85;;;;;;;-1.32;64.63;97478.31;1825306;78;21133;-79
2021/03/07 00:45:27;;;;;;;7.42;6.08;;;;;;;-1.33;64.72;97464.74;1825327;79;21124;-79
2021/03/07 00:47:53;;;;;;;10.90;8.00;;;;;;;-1.33;64.78;97463.47;1825433;78;21114;-79
2021/03/07 00:50:21;;;;;;;6.78;6.08;;;;;;;-1.35;64.92;97469.11;1825480;78;21090;-79
2021/03/07 00:52:47;;;;;;;8.73;7.83;;;;;;;-1.38;64.81;97468.00;1825979;78;21122;-79
2021/03/07 00:55:13;;;;;;;9.95;7.60;;;;;;;-1.41;64.75;97459.25;1826087;78;21114;-79
2021/03/07 00:57:40;;;;;;;11.18;8.63;;;;;;;-1.41;65.02;97449.05;1826340;78;21106;-79
2021/03/07 01:00:15;;;;;;;9.08;8.18;;;;;;;-1.42;64.72;97442.31;1826011;78;21416;-79
2021/03/07 01:02:41;;;;;;;14.70;7.45;;;;;;;-1.40;65.02;97439.67;1825833;78;21251;-79
2021/03/07 01:05:07;;;;;;;9.60;7.15;;;;;;;-1.45;65.05;97432.28;1825413;78;21128;-79
2021/03/07 01:07:34;;;;;;;11.08;8.93;;;;;;;-1.46;64.78;97422.98;1825263;79;21432;-79
2021/03/07 01:10:00;;;;;;;11.78;10.15;;;;;;;-1.46;64.80;97424.27;1825328;78;21134;-79
2021/03/07 01:12:26;;;;;;;12.00;10.28;;;;;;;-1.43;64.90;97421.55;1755669;81;21264;-79
2021/03/07 01:14:52;;;;;;;9.23;8.30;;;;;;;-1.46;64.78;97421.72;1770311;81;21282;-79
2021/03/07 01:17:18;;;;;;;10.53;7.67;;;;;;;-1.46;64.86;97414.52;1727763;82;21158;-79
2021/03/07 01:19:44;;;;;;;9.88;7.47;;;;;;;-1.48;64.68;97414.58;1770420;81;21177;-79
2021/03/07 01:22:10;;;;;;;9.98;7.92;;;;;;;-1.45;64.98;97410.61;1752433;82;21172;-79
2021/03/07 01:24:36;;;;;;;8.43;6.53;;;;;;;-1.45;64.90;97402.97;1726980;82;21309;-79
2021/03/07 01:27:03;;;;;;;9.38;6.53;;;;;;;-1.43;64.85;97400.33;1749970;82;21130;-79
2021/03/07 01:29:29;;;;;;;7.58;6.08;;;;;;;-1.48;65.17;97383.98;1734444;83;21325;-79
2021/03/07 01:31:55;;;;;;;7.00;6.28;;;;;;;-1.53;64.76;97384.24;1756768;81;21114;-79
2021/03/07 01:34:21;;;;;;;6.25;5.62;;;;;;;-1.51;64.85;97383.70;1749964;82;21158;-79
2021/03/07 01:36:47;;;;;;;9.65;7.80;;;;;;;-1.50;64.94;97380.70;1756946;82;21369;-79
2021/03/07 01:39:13;;;;;;;8.83;7.28;;;;;;;-1.52;65.02;97382.06;1749909;82;21280;-79
2021/03/07 01:41:39;;;;;;;11.45;8.33;;;;;;;-1.52;65.07;97379.52;1756917;82;21138;-79
2021/03/07 01:44:06;;;;;;;8.95;7.67;;;;;;;-1.53;64.85;97372.77;1749897;82;21102;-79
2021/03/07 01:46:32;;;;;;;9.48;7.20;;;;;;;-1.53;65.09;97371.95;1735055;83;21093;-79
2021/03/07 01:48:58;;;;;;;9.88;7.35;;;;;;;-1.53;64.99;97359.20;1757695;81;21126;-79
2021/03/07 01:51:24;;;;;;;9.88;8.18;;;;;;;-1.55;64.97;97343.19;1749949;82;21281;-79
2021/03/07 01:53:50;;;;;;;9.73;6.85;;;;;;;-1.57;64.73;97342.45;1756941;82;21388;-79
2021/03/07 01:56:16;;;;;;;7.67;6.28;;;;;;;-1.54;64.96;97334.63;1749945;82;21388;-79
2021/03/07 01:58:43;;;;;;;9.20;7.25;;;;;;;-1.56;65.29;97330.89;1756462;82;21185;-79
2021/03/07 02:01:09;;;;;;;11.63;9.30;;;;;;;-1.58;64.94;97331.43;1749789;82;21408;-79
2021/03/07 02:03:35;;;;;;;9.08;7.30;;;;;;;-1.57;65.03;97327.16;1756851;82;21149;-79
2021/03/07 02:06:01;;;;;;;11.28;7.90;;;;;;;-1.54;64.86;97329.53;1749871;82;21900;-79
2021/03/07 02:08:27;;;;;;;10.82;8.35;;;;;;;-1.51;64.76;97330.17;1734583;83;21162;-79
2021/03/07 02:10:56;;;;;;;9.73;6.97;;;;;;;-1.49;64.68;97327.54;1756761;81;21130;-79
2021/03/07 02:13:32;;;;;;;9.20;6.80;;;;;;;-1.49;64.55;97318.62;1750026;82;21158;-79
2021/03/07 02:16:08;;;;;;;10.30;7.25;;;;;;;-1.47;64.84;97315.98;1734540;83;21256;-79
2021/03/07 02:18:38;;;;;;;9.13;7.05;;;;;;;-1.47;64.80;97312.16;1757340;81;21173;-79
2021/03/07 02:21:15;;;;;;;8.18;6.47;;;;;;;-1.47;64.55;97309.16;1750101;82;21146;-79
2021/03/07 02:24:07;;;;;;;10.70;7.90;;;;;;;-1.48;64.75;97307.52;1728087;82;21178;-79
2021/03/07 02:26:40;;;;;;;7.28;6.47;;;;;;;-1.48;64.25;97300.32;1806103;79;21109;-79
2021/03/07 02:29:10;;;;;;;9.38;6.85;;;;;;;-1.46;64.42;97298.53;1820105;79;21217;-79
2021/03/07 02:31:39;;;;;;;8.85;7.28;;;;;;;-1.47;64.64;97292.59;1787946;79;21157;-79
2021/03/07 02:34:10;;;;;;;12.23;8.20;;;;;;;-1.49;64.46;97288.03;1819463;79;21253;-79
2021/03/07 02:36:53;;;;;;;10.15;8.80;;;;;;;-1.49;64.17;97279.56;1819524;78;21320;-79
2021/03/07 02:39:22;;;;;;;8.40;6.30;;;;;;;-1.45;64.24;97284.88;1820222;79;21141;-79
2021/03/07 02:41:48;;;;;;;7.72;6.80;;;;;;;-1.43;64.30;97288.98;1745980;82;21357;-79
2021/03/07 02:44:15;;;;;;;7.95;6.35;;;;;;;-1.44;64.05;97286.07;1757519;82;21118;-79
2021/03/07 02:46:41;;;;;;;10.28;7.60;;;;;;;-1.43;64.16;97277.52;1750592;82;21087;-79
2021/03/07 02:49:11;;;;;;;8.98;7.00;;;;;;;-1.44;64.05;97274.59;1757547;82;21642;-79
2021/03/07 02:51:37;;;;;;;7.28;6.33;;;;;;;-1.42;63.89;97267.68;1750568;82;21341;-79
2021/03/07 02:54:06;;;;;;;7.85;6.72;;;;;;;-1.38;63.70;97275.97;1757556;82;21110;-79
2021/03/07 02:56:35;;;;;;;9.70;6.90;;;;;;;-1.37;64.04;97273.33;1750548;82;21114;-79
2021/03/07 02:59:09;;;;;;;6.80;5.95;;;;;;;-1.39;63.86;97272.60;1735022;83;21106;-79
2021/03/07 03:01:36;;;;;;;9.40;6.80;;;;;;;-1.39;63.87;97270.05;1757590;81;21118;-79
2021/03/07 03:04:02;;;;;;;6.17;5.08;;;;;;;-1.40;63.85;97273.97;1750807;82;21090;-79
2021/03/07 03:06:28;;;;;;;8.60;7.00;;;;;;;-1.45;63.92;97272.14;1727874;82;21252;-79
2021/03/07 03:08:56;;;;;;;7.90;7.10;;;;;;;-1.44;63.73;97275.05;1750798;82;21314;-79
2021/03/07 03:11:30;;;;;;;11.75;8.45;;;;;;;-1.44;63.59;97282.25;1735185;83;21109;-79
2021/03/07 03:13:56;;;;;;;19.27;14.55;;;;;;;-1.45;63.87;97275.51;1728327;82;21127;-79
2021/03/07 03:16:24;;;;;;;11.55;8.55;;;;;;;-1.45;63.92;97269.13;1750833;82;21087;-79
2021/03/07 03:18:50;;;;;;;8.48;7.37;;;;;;;-1.46;63.67;97275.59;1781421;80;21296;-79
2021/03/07 03:21:16;;;;;;;9.05;7.10;;;;;;;-1.46;63.65;97267.50;1819485;79;21397;-79
2021/03/07 03:23:42;;;;;;;7.47;6.75;;;;;;;-1.46;63.67;97265.40;1824990;78;21142;-79
2021/03/07 03:26:09;;;;;;;6.70;5.22;;;;;;;-1.45;63.58;97272.14;1825340;78;21126;-79
2021/03/07 03:28:37;;;;;;;8.75;7.12;;;;;;;-1.45;63.47;97276.78;1825494;78;21125;-79
2021/03/07 03:31:03;;;;;;;7.20;5.95;;;;;;;-1.45;63.62;97274.69;1796988;79;21329;-79
2021/03/07 03:33:29;;;;;;;7.67;6.80;;;;;;;-1.48;63.59;97273.11;1826065;78;21090;-79
2021/03/07 03:35:56;;;;;;;10.23;7.00;;;;;;;-1.48;63.65;97280.75;1826062;78;21122;-79
2021/03/07 03:38:33;;;;;;;9.85;6.60;;;;;;;-1.48;63.50;97276.92;1826069;78;21252;-79
2021/03/07 03:40:59;;;;;;;7.95;6.78;;;;;;;-1.45;63.27;97282.33;1826073;78;21318;-79
2021/03/07 03:43:26;;;;;;;6.50;5.47;;;;;;;-1.43;63.32;97278.79;1826168;78;21078;-79
2021/03/07 03:45:56;;;;;;;10.03;8.45;;;;;;;-1.44;62.86;97279.70;1796650;79;21093;-79
2021/03/07 03:48:24;;;;;;;8.33;6.12;;;;;;;-1.42;63.53;97274.05;1796880;79;21380;-79
2021/03/07 03:50:50;;;;;;;12.35;8.13;;;;;;;-1.43;63.15;97269.87;1796169;79;21308;-79
2021/03/07 03:53:17;;;;;;;7.47;6.37;;;;;;;-1.43;63.37;97267.77;1825990;78;21126;-79
2021/03/07 03:55:49;;;;;;;8.80;7.05;;;;;;;-1.42;63.34;97264.31;1826040;78;21073;-79
2021/03/07 03:58:16;;;;;;;8.37;7.43;;;;;;;-1.46;63.19;97261.12;1796634;79;21162;-79
2021/03/07 04:00:43;;;;;;;8.45;7.40;;;;;;;-1.49;63.04;97257.90;1826019;78;21399;-79
2021/03/07 04:03:14;;;;;;;9.80;7.90;;;;;;;-1.50;63.20;97262.18;1825542;78;21351;-79
2021/03/07 04:05:43;;;;;;;10.32;8.28;;;;;;;-1.53;63.44;97261.90;1825508;78;21125;-79
2021/03/07 04:08:10;;;;;;;8.95;7.50;;;;;;;-1.54;63.28;97260.72;1826057;79;21122;-79
2021/03/07 04:10:36;;;;;;;9.28;5.90;;;;;;;-1.55;63.52;97261.62;1796381;79;21217;-79
2021/03/07 04:13:03;;;;;;;11.50;8.78;;;;;;;-1.56;63.02;97258.25;1826065;78;21305;-79
2021/03/07 04:15:29;;;;;;;6.55;5.47;;;;;;;-1.55;63.09;97268.00;1826021;78;21101;-79
2021/03/07 04:17:55;;;;;;;8.88;6.80;;;;;;;-1.56;63.36;97264.63;1825929;79;21356;-79
2021/03/07 04:20:21;;;;;;;10.72;7.92;;;;;;;-1.59;63.28;97261.44;1825981;79;21097;-79
2021/03/07 04:22:50;;;;;;;6.33;4.78;;;;;;;-1.58;63.26;97254.16;1824823;79;21341;-79
2021/03/07 04:25:17;;;;;;;7.10;5.47;;;;;;;-1.57;63.00;97255.80;1796021;79;21224;-79
2021/03/07 04:27:43;;;;;;;8.40;6.08;;;;;;;-1.56;62.97;97258.25;1822954;79;21299;-79
2021/03/07 04:30:10;;;;;;;9.28;6.78;;;;;;;-1.56;63.29;97251.88;1822914;78;21118;-80
2021/03/07 04:32:36;;;;;;;7.92;6.10;;;;;;;-1.56;63.10;97251.88;1823134;79;21137;-79
2021/03/07 04:35:03;;;;;;;9.53;7.00;;;;;;;-1.55;63.11;97250.16;1823150;78;21236;-79
2021/03/07 04:37:29;;;;;;;7.10;6.40;;;;;;;-1.54;63.32;97246.70;1823028;78;21248;-79
2021/03/07 04:39:55;;;;;;;10.60;6.80;;;;;;;-1.57;63.00;97240.50;1822927;78;21122;-79
2021/03/07 04:42:22;;;;;;;9.13;7.05;;;;;;;-1.57;62.90;97245.60;1823085;78;21110;-79
2021/03/07 04:44:48;;;;;;;9.00;7.17;;;;;;;-1.57;63.10;97243.88;1823024;79;21471;-79
2021/03/07 04:47:14;;;;;;;8.50;7.08;;;;;;;-1.58;62.95;97242.23;1823059;78;21275;-80
2021/03/07 04:49:40;;;;;;;10.03;7.50;;;;;;;-1.57;62.91;97245.14;1822845;78;21122;-79
2021/03/07 04:52:06;;;;;;;6.53;5.90;;;;;;;-1.56;62.84;97249.79;1822996;78;21138;-79
2021/03/07 04:54:32;;;;;;;11.68;8.10;;;;;;;-1.56;63.19;97244.23;1823049;79;21113;-79
2021/03/07 04:57:04;;;;;;;11.12;7.37;;;;;;;-1.58;63.16;97243.96;1823022;78;21458;-79
2021/03/07 04:59:31;;;;;;;8.93;6.80;;;;;;;-1.58;63.07;97240.14;1795102;79;21436;-79
2021/03/07 05:01:57;;;;;;;7.95;6.33;;;;;;;-1.62;63.04;97242.05;1822915;78;21130;-79
2021/03/07 05:04:24;;;;;;;11.48;8.08;;;;;;;-1.65;62.88;97241.37;1795209;79;21146;-79
2021/03/07 05:06:50;;;;;;;7.87;6.72;;;;;;;-1.66;63.01;97242.27;1822910;79;21094;-79
2021/03/07 05:09:16;;;;;;;6.87;6.20;;;;;;;-1.67;63.17;97235.54;1822823;79;21118;-79
2021/03/07 05:11:42;;;;;;;9.75;7.05;;;;;;;-1.67;63.18;97234.27;1822914;78;21272;-79
2021/03/07 05:14:08;;;;;;;10.30;7.78;;;;;;;-1.70;63.12;97228.89;1823129;78;21117;-79
2021/03/07 05:16:34;;;;;;;10.40;7.60;;;;;;;-1.70;63.10;97227.62;1822992;78;21312;-79
2021/03/07 05:19:01;;;;;;;19.67;11.12;;;;;;;-1.67;63.05;97226.17;1822947;78;21276;-79
2021/03/07 05:21:27;;;;;;;14.70;10.23;;;;;;;-1.66;63.22;97222.70;1823076;79;21348;-79
2021/03/07 05:23:59;;;;;;;8.65;7.28;;;;;;;-1.64;63.00;97218.80;1787711;79;21124;-79
2021/03/07 05:26:24;;;;;;;11.00;6.55;;;;;;;-1.64;62.87;97214.52;1804517;79;21124;-79
2021/03/07 05:28:50;;;;;;;9.53;7.97;;;;;;;-1.62;62.99;97211.91;1804503;79;21122;-79
2021/03/07 05:31:16;;;;;;;8.90;7.05;;;;;;;-1.65;62.95;97203.97;1804504;79;21090;-79
2021/03/07 05:33:42;;;;;;;8.38;7.37;;;;;;;-1.64;63.11;97206.88;1804601;79;21090;-79
2021/03/07 05:36:08;;;;;;;10.45;7.55;;;;;;;-1.63;62.32;97209.83;1804688;79;21236;-79
2021/03/07 05:38:34;;;;;;;10.30;7.50;;;;;;;-1.60;62.93;97202.45;1804802;79;21121;-79
2021/03/07 05:41:01;;;;;;;11.03;8.03;;;;;;;-1.59;63.04;97201.55;1786557;79;21138;-79
2021/03/07 05:43:27;;;;;;;11.25;9.00;;;;;;;-1.56;62.88;97197.09;1804544;79;21216;-79
2021/03/07 05:45:53;;;;;;;22.65;15.90;;;;;;;-1.54;62.97;97195.72;1804586;79;21321;-79
2021/03/07 05:48:19;;;;;;;52.13;31.87;;;;;;;-1.51;62.95;97195.55;1804577;79;21134;-79
2021/03/07 05:50:46;;;;;;;80.28;46.75;;;;;;;-1.48;62.82;97197.09;1803969;79;21304;-79
2021/03/07 05:53:12;;;;;;;47.20;32.67;;;;;;;-1.45;62.87;97190.11;1803811;79;21130;-79
2021/03/07 05:55:38;;;;;;;22.20;16.32;;;;;;;-1.42;62.60;97187.84;1803958;79;21259;-79
2021/03/07 05:58:04;;;;;;;32.75;22.62;;;;;;;-1.39;62.49;97180.83;1785810;79;21158;-79
2021/03/07 06:00:30;;;;;;;55.25;30.97;;;;;;;-1.39;62.79;97182.10;1803470;79;21153;-79
2021/03/07 06:02:57;;;;;;;59.13;33.13;;;;;;;-1.35;62.79;97182.28;1804120;79;21118;-79
2021/03/07 06:05:23;;;;;;;76.87;40.10;;;;;;;-1.32;62.84;97185.11;1803851;79;21121;-79
2021/03/07 06:07:49;;;;;;;16.48;10.68;;;;;;;-1.33;62.74;97184.28;1803863;79;21096;-79
2021/03/07 06:10:25;;;;;;;50.40;29.82;;;;;;;-1.31;62.71;97189.29;1803780;79;21458;-79
2021/03/07 06:13:10;;;;;;;18.57;12.20;;;;;;;-1.31;62.59;97188.02;1803881;79;21106;-79
2021/03/07 06:15:34;;;;;;;18.07;12.15;;;;;;;-1.27;62.50;97183.95;1803675;79;21097;-79
2021/03/07 06:18:00;;;;;;;39.18;23.50;;;;;;;-1.22;62.50;97184.95;1803819;79;21138;-79
2021/03/07 06:20:28;;;;;;;18.87;11.68;;;;;;;-1.18;62.49;97185.12;1785525;79;21161;-79
2021/03/07 06:22:59;;;;;;;17.45;12.20;;;;;;;-1.17;62.26;97186.77;1811203;79;21313;-79
2021/03/07 06:25:26;;;;;;;18.57;15.08;;;;;;;-1.15;62.47;97191.77;1787227;80;21122;-79
2021/03/07 06:27:52;;;;;;;14.78;11.68;;;;;;;-1.12;62.09;97183.52;1756162;82;21133;-79
2021/03/07 06:30:29;;;;;;;15.93;13.58;;;;;;;-1.08;62.15;97186.23;1770978;81;21121;-79
2021/03/07 06:33:00;;;;;;;13.93;11.08;;;;;;;-1.03;62.36;97177.03;1756164;81;21225;-79
2021/03/07 06:35:29;;;;;;;13.25;10.68;;;;;;;-0.98;62.02;97180.97;1771165;81;21125;-79
2021/03/07 06:38:07;;;;;;;15.25;10.15;;;;;;;-0.95;62.17;97181.23;1756314;81;21408;-79
2021/03/07 06:40:43;;;;;;;8.43;7.50;;;;;;;-0.93;62.07;97177.68;1771180;81;21121;-79
2021/03/07 06:43:24;;;;;;;11.90;8.65;;;;;;;-0.87;61.83;97177.76;1756389;81;21263;-79
2021/03/07 06:45:50;;;;;;;11.35;8.58;;;;;;;-0.84;61.76;97172.92;1742726;81;21129;-79
2021/03/07 06:48:16;;;;;;;10.80;8.40;;;;;;;-0.80;61.83;97176.50;1729017;82;21134;-79
2021/03/07 06:50:58;;;;;;;10.78;8.20;;;;;;;-0.76;61.83;97177.12;1771068;81;21248;-79
2021/03/07 06:53:36;;;;;;;11.40;9.23;;;;;;;-0.70;61.85;97177.56;1755502;82;21149;-79
2021/03/07 06:56:03;;;;;;;10.82;9.15;;;;;;;-0.63;61.81;97176.30;1755772;82;21144;-79
2021/03/07 06:58:29;;;;;;;10.30;9.00;;;;;;;-0.54;61.67;97171.07;1771238;81;21153;-79
2021/03/07 07:00:55;;;;;;;10.13;8.40;;;;;;;-0.44;61.57;97171.34;1756245;81;21133;-79
2021/03/07 07:03:22;;;;;;;11.70;8.25;;;;;;;-0.35;61.04;97161.36;1771500;81;21093;-79
2021/03/07 07:05:50;;;;;;;8.28;7.20;;;;;;;-0.25;60.85;97159.06;1756525;82;21090;-79
2021/03/07 07:08:17;;;;;;;10.32;8.35;;;;;;;-0.12;60.77;97164.23;1756302;82;21097;-79
2021/03/07 07:10:55;;;;;;;7.28;6.58;;;;;;;-0.02;60.62;97164.80;1771137;81;21455;-79
2021/03/07 07:13:23;;;;;;;9.30;6.95;;;;;;;0.10;60.09;97167.51;1756290;82;21332;-79
2021/03/07 07:16:03;;;;;;;8.40;7.47;;;;;;;0.20;60.02;97168.57;1770181;81;21137;-79
2021/03/07 07:18:31;;;;;;;7.42;6.62;;;;;;;0.30;59.98;97163.20;1771285;81;21130;-79
2021/03/07 07:20:57;;;;;;;11.15;8.53;;;;;;;0.40;59.94;97163.44;1770469;81;21298;-79
2021/03/07 07:23:24;;;;;;;11.00;8.08;;;;;;;0.50;59.60;97165.77;1768703;81;21165;-79
2021/03/07 07:25:52;;;;;;;6.90;6.20;;;;;;;0.59;59.79;97163.41;1735623;83;21129;-79
2021/03/07 07:28:18;;;;;;;8.13;6.92;;;;;;;0.67;58.78;97166.76;1748139;82;21123;-79
2021/03/07 07:31:18;;;;;;;7.78;6.87;;;;;;;0.67;58.89;97160.36;1736415;83;21097;-79
2021/03/07 07:33:59;;;;;;;10.80;7.90;;;;;;;0.75;58.97;97161.12;1690588;82;21198;-79
2021/03/07 07:36:48;;;;;;;9.65;7.60;;;;;;;0.81;58.73;97156.44;1736082;83;21136;-79
2021/03/07 07:39:16;;;;;;;19.85;12.05;;;;;;;0.95;58.73;97156.76;1724681;82;21281;-79
2021/03/07 07:41:42;;;;;;;36.45;16.65;;;;;;;1.04;58.29;97147.20;1709445;83;21137;-80
2021/03/07 07:44:10;;;;;;;42.13;19.00;;;;;;;1.13;58.30;97150.39;1692165;84;21126;-80
2021/03/07 07:47:03;;;;;;;69.55;30.92;;;;;;;1.22;58.30;97144.30;1734924;83;21110;-80
2021/03/07 07:49:44;;;;;;;35.90;16.87;;;;;;;1.34;58.17;97143.00;1716762;84;21249;-80
2021/03/07 07:52:31;;;;;;;32.00;18.48;;;;;;;1.42;57.41;97138.16;1735115;83;21228;-80
2021/03/07 07:55:03;;;;;;;22.87;13.00;;;;;;;1.47;57.88;97135.30;1716703;84;21131;-80
2021/03/07 07:57:41;;;;;;;13.13;8.53;;;;;;;1.62;57.79;97130.81;1734940;83;21348;-80
2021/03/07 08:00:21;;;;;;;27.95;13.10;;;;;;;1.68;57.14;97132.50;1734821;83;21173;-80
2021/03/07 08:02:53;;;;;;;85.07;37.98;;;;;;;1.67;56.79;97138.55;1716584;84;21127;-80
2021/03/07 08:05:28;;;;;;;23.90;13.38;;;;;;;1.69;56.79;97136.70;1735204;83;21129;-80
2021/03/07 08:08:04;;;;;;;13.88;8.48;;;;;;;1.72;56.91;97121.56;1716556;84;21143;-80
2021/03/07 08:10:47;;;;;;;53.75;23.25;;;;;;;1.75;55.91;97117.03;1734934;83;21159;-80
2021/03/07 08:13:29;;;;;;;54.80;23.87;;;;;;;1.80;56.68;97118.83;1715637;84;21924;-80
2021/03/07 08:16:03;;;;;;;;;;;;;;;1.86;56.05;97109.88;1728605;83;21177;-80
2021/03/07 08:18:49;;;;;;;89.35;32.53;;;;;;;1.90;56.34;97107.44;1715844;83;20132;-80
2021/03/07 08:21:19;;;;;;;85.28;33.35;;;;;;;1.99;57.01;97113.66;1734320;83;21182;-80
2021/03/07 08:23:58;;;;;;;109.60;40.03;;;;;;;2.07;56.41;97110.88;1706549;84;21308;-80
2021/03/07 08:26:27;;;;;;;12.40;8.60;;;;;;;2.12;56.52;97110.56;1722510;83;21343;-80
2021/03/07 08:28:53;;;;;;;41.13;18.23;;;;;;;2.10;55.22;97104.24;1722362;83;21124;-80
2021/03/07 08:31:32;;;;;;;71.15;35.43;;;;;;;2.05;54.62;97097.83;1722421;83;21123;-80
2021/03/07 08:34:20;;;;;;;41.60;20.10;;;;;;;2.03;55.94;97095.84;1722546;83;21231;-80
2021/03/07 08:36:58;;;;;;;81.35;38.65;;;;;;;2.06;54.76;97093.86;1722565;83;21156;-80
2021/03/07 08:39:24;;;;;;;113.37;46.33;;;;;;;2.04;54.14;97091.06;1722333;83;21139;-80
2021/03/07 08:41:56;;;;;;;58.42;26.23;;;;;;;2.05;55.23;97088.86;1722396;83;21119;-80
2021/03/07 08:44:22;;;;;;;99.07;35.43;;;;;;;2.06;55.04;97080.23;1722560;83;21089;-80
2021/03/07 08:46:48;;;;;;;75.92;26.00;;;;;;;2.10;55.59;97074.76;1722526;83;21249;-80
2021/03/07 08:49:19;;;;;;;60.00;22.10;;;;;;;2.10;55.37;97079.07;1721907;83;21490;-80
2021/03/07 08:51:48;;;;;;;65.97;24.30;;;;;;;2.17;55.65;97078.99;1722764;83;21089;-80
2021/03/07 08:54:22;;;;;;;77.42;29.48;;;;;;;2.23;55.10;97077.25;1722496;83;21120;-80
2021/03/07 08:56:50;;;;;;;34.70;13.55;;;;;;;2.28;54.55;97070.52;1722580;83;21262;-80
2021/03/07 08:59:16;;;;;;;93.37;30.15;;;;;;;2.31;53.42;97071.10;1721758;83;21212;-80
2021/03/07 09:01:42;;;;;;;104.45;35.33;;;;;;;2.37;54.37;97067.26;1722493;83;21304;-80
2021/03/07 09:04:11;;;;;;;101.30;33.28;;;;;;;2.44;54.96;97063.32;1722504;83;21336;-80
2021/03/07 09:06:40;;;;;;;91.92;29.07;;;;;;;2.48;54.00;97064.72;1722537;83;21124;-80
2021/03/07 09:09:16;;;;;;;65.90;22.75;;;;;;;2.54;54.42;97060.40;1695711;83;21136;-80
2021/03/07 09:11:54;;;;;;;148.93;49.45;;;;;;;2.65;54.14;97060.41;1722428;83;21124;-80
2021/03/07 09:14:30;;;;;;;123.15;41.40;;;;;;;2.73;54.73;97051.31;1722485;83;21133;-80
2021/03/07 09:16:56;;;;;;;41.65;14.13;;;;;;;2.82;54.38;97049.34;1722499;83;21123;-80
2021/03/07 09:19:38;;;;;;;77.55;26.33;;;;;;;2.84;53.06;97041.86;1722470;83;21298;-80
2021/03/07 09:22:25;;;;;;;40.23;15.57;;;;;;;2.82;53.83;97034.75;1695987;83;21266;-80
2021/03/07 09:24:59;;;;;;;86.35;27.48;;;;;;;2.87;53.45;97036.48;1745419;82;21269;-80
2021/03/07 09:27:31;;;;;;;23.07;9.53;;;;;;;2.93;54.11;97032.19;1751250;82;21261;-80
2021/03/07 09:30:07;;;;;;;72.15;25.08;;;;;;;3.06;53.93;97023.05;1751928;82;21134;-80
2021/03/07 09:32:37;;;;;;;61.18;22.42;;;;;;;3.13;53.83;97024.69;1752182;82;21114;-80
2021/03/07 09:35:31;;;;;;;135.63;42.48;;;;;;;3.07;52.47;97024.67;1752239;82;21456;-80
2021/03/07 09:38:04;;;;;;;57.27;18.85;;;;;;;3.07;53.27;97023.86;1752235;82;21244;-80
2021/03/07 09:40:36;;;;;;;74.22;25.72;;;;;;;3.11;52.37;97013.25;1752194;82;21233;-80
2021/03/07 09:43:15;;;;;;;43.00;17.77;;;;;;;3.21;52.78;97020.56;1752314;82;21079;-80
2021/03/07 09:45:47;;;;;;;55.40;23.85;;;;;;;3.23;52.88;97016.59;1748786;82;21166;-80
2021/03/07 09:48:13;;;;;;;89.92;32.33;;;;;;;3.25;53.07;97013.42;1752267;82;21146;-80
2021/03/07 09:50:40;;;;;;;112.40;41.50;;;;;;;3.30;52.42;97008.77;1752140;82;21131;-80
2021/03/07 09:53:08;;;;;;;52.10;20.62;;;;;;;3.37;53.33;97000.91;1752216;82;21280;-80
2021/03/07 09:55:35;;;;;;;53.85;22.02;;;;;;;3.48;53.18;97000.06;1725004;82;21099;-80
2021/03/07 09:58:07;;;;;;;29.00;12.98;;;;;;;3.50;52.54;96990.00;1752258;82;21253;-80
2021/03/07 10:00:33;;;;;;;56.13;20.00;;;;;;;3.52;51.75;96989.41;1752263;82;21325;-80
2021/03/07 10:03:00;;;;;;;24.92;10.75;;;;;;;3.46;51.97;96983.48;1724443;82;21142;-80
2021/03/07 10:05:27;;;;;;;51.90;21.02;;;;;;;3.49;52.67;96984.52;1724547;82;21122;-80
2021/03/07 10:07:53;;;;;;;45.35;20.02;;;;;;;3.51;52.47;96974.12;1752329;82;21221;-80
2021/03/07 10:10:24;;;;;;;41.33;18.07;;;;;;;3.54;52.75;96973.39;1752152;82;21138;-80
2021/03/07 10:12:57;;;;;;;37.88;16.27;;;;;;;3.64;52.71;96964.95;1752161;82;21249;-80
2021/03/07 10:15:37;;;;;;;51.48;24.82;;;;;;;3.72;52.69;96960.81;1752296;82;21083;-80
2021/03/07 10:18:16;;;;;;;21.27;11.63;;;;;;;3.81;51.73;96959.26;1751736;82;21338;-79
2021/03/07 10:20:49;;;;;;;21.15;10.95;;;;;;;3.80;51.54;96951.20;1723912;82;22300;-78
2021/03/07 10:23:16;;;;;;;10.58;6.75;;;;;;;3.86;52.33;96943.79;1751534;82;21281;-78
2021/03/07 10:25:45;;;;;;;8.25;6.12;;;;;;;3.94;50.38;96937.22;1785502;80;21256;-78
2021/03/07 10:28:26;;;;;;;23.50;12.33;;;;;;;3.92;51.11;96939.92;1785862;80;21462;-80
2021/03/07 10:30:55;;;;;;;21.45;9.63;;;;;;;3.99;51.56;96937.64;1785974;80;21138;-78
2021/03/07 10:33:26;;;;;;;11.28;7.40;;;;;;;4.12;51.55;96927.50;1786321;80;21245;-78
2021/03/07 10:36:17;;;;;;;19.98;10.68;;;;;;;4.20;51.37;96928.94;1786361;80;21241;-78
2021/03/07 10:38:46;;;;;;;18.27;10.78;;;;;;;4.24;51.79;96924.38;1786325;80;21137;-78
2021/03/07 10:41:31;;;;;;;12.37;8.68;;;;;;;4.22;51.43;96914.19;1786475;80;21310;-78
2021/03/07 10:44:02;;;;;;;22.35;12.50;;;;;;;4.20;50.65;96914.80;1786546;80;21078;-78
2021/03/07 10:46:35;;;;;;;16.97;9.20;;;;;;;4.26;51.57;96903.20;1786455;80;21094;-78
2021/03/07 10:49:06;;;;;;;28.45;15.43;;;;;;;4.34;50.64;96905.10;1786473;80;21099;-78
2021/03/07 10:51:33;;;;;;;9.48;6.70;;;;;;;4.37;51.11;96900.98;1786307;80;21123;-78
2021/03/07 10:53:59;;;;;;;10.55;7.22;;;;;;;4.35;49.94;96901.58;1785686;80;21269;-78
2021/03/07 10:56:32;;;;;;;23.67;13.80;;;;;;;4.35;49.89;96893.87;1785652;80;21356;-78
2021/03/07 10:58:59;;;;;;;20.72;13.40;;;;;;;4.38;50.86;96894.89;1785151;80;21189;-79
2021/03/07 11:01:25;;;;;;;8.18;5.80;;;;;;;4.44;51.02;96886.66;1785780;80;21333;-79
2021/03/07 11:03:51;;;;;;;6.62;5.55;;;;;;;4.45;49.75;96880.09;1785733;80;21125;-78
2021/03/07 11:06:19;;;;;;;7.05;6.22;;;;;;;4.46;50.07;96875.29;1755110;80;21232;-78
2021/03/07 11:08:49;;;;;;;15.35;10.50;;;;;;;4.51;50.77;96874.89;1785692;80;21146;-78
2021/03/07 11:11:15;;;;;;;11.00;7.85;;;;;;;4.57;50.55;96867.13;1786082;80;21149;-78
2021/03/07 11:13:42;;;;;;;18.48;13.28;;;;;;;4.60;50.50;96862.52;1785769;80;21454;-78
2021/03/07 11:16:08;;;;;;;9.05;6.12;;;;;;;4.67;51.38;96850.73;1785745;80;21130;-79
2021/03/07 11:18:34;;;;;;;8.93;6.65;;;;;;;4.78;49.87;96849.81;1785612;80;21150;-79
2021/03/07 11:21:00;;;;;;;7.03;5.58;;;;;;;4.83;49.48;96845.06;1785689;80;21260;-78
2021/03/07 11:23:26;;;;;;;5.37;4.78;;;;;;;4.89;50.40;96838.11;1785560;80;21256;-79
2021/03/07 11:25:53;;;;;;;12.93;8.50;;;;;;;4.91;50.13;96845.70;1790775;80;21158;-79
2021/03/07 11:28:19;;;;;;;7.35;6.28;;;;;;;4.93;50.12;96838.17;1791480;80;21114;-79
2021/03/07 11:30:45;;;;;;;7.20;5.30;;;;;;;4.97;50.01;96831.80;1791234;80;21129;-79
2021/03/07 11:33:11;;;;;;;12.45;8.68;;;;;;;5.04;50.05;96823.03;1762821;80;21137;-79
2021/03/07 11:35:37;;;;;;;6.15;5.50;;;;;;;5.05;49.65;96818.25;1762745;80;21343;-79
2021/03/07 11:38:03;;;;;;;7.40;5.00;;;;;;;5.00;48.51;96812.67;1791300;80;21395;-79
2021/03/07 11:40:29;;;;;;;7.85;5.53;;;;;;;4.98;47.18;96811.52;1791311;80;21102;-79